createdAt,value
2019-03-09T00:01:47.876Z,40.88
2019-03-09T00:04:16.931Z,40.08
2019-03-09T00:06:46.624Z,44.15
2019-03-09T00:09:15.862Z,39.60
2019-03-09T00:11:44.919Z,34.78
2019-03-09T00:14:14.070Z,35.40
2019-03-09T00:16:43.136Z,39.33
2019-03-09T00:19:12.224Z,40.90
2019-03-09T00:21:41.220Z,42.20
2019-03-09T00:24:15.346Z,38.75
2019-03-09T00:27:29.490Z,44.18
2019-03-09T00:30:28.037Z,47.00
2019-03-09T00:32:57.081Z,45.40
2019-03-09T00:35:26.134Z,48.17
2019-03-09T00:37:55.172Z,44.45
2019-03-09T00:40:24.249Z,42.27
2019-03-09T00:42:53.232Z,46.85
2019-03-09T00:45:22.360Z,56.80
2019-03-09T00:47:51.278Z,62.43
2019-03-09T00:50:20.921Z,58.95
2019-03-09T00:52:50.184Z,60.73
2019-03-09T00:55:19.246Z,61.55
2019-03-09T00:57:48.348Z,55.43
2019-03-09T01:00:19.260Z,57.80
2019-03-09T01:02:48.283Z,52.67
2019-03-09T01:05:17.460Z,52.00
2019-03-09T01:07:46.402Z,52.35
2019-03-09T01:10:16.434Z,53.52
2019-03-09T01:12:45.276Z,52.90
2019-03-09T01:15:14.453Z,54.53
2019-03-09T01:17:43.713Z,56.90
2019-03-09T01:20:14.380Z,52.60
2019-03-09T01:22:43.332Z,55.17
2019-03-09T01:25:12.612Z,36.00
2019-03-09T01:27:41.666Z,37.90
2019-03-09T01:30:13.635Z,47.80
2019-03-09T01:32:42.667Z,44.00
2019-03-09T01:35:12.449Z,43.92
2019-03-09T01:37:41.799Z,46.95
2019-03-09T01:40:11.441Z,44.93
2019-03-09T01:42:40.973Z,49.70
2019-03-09T01:45:11.069Z,49.77
2019-03-09T01:47:40.191Z,59.00
2019-03-09T01:50:09.363Z,49.73
2019-03-09T01:52:38.528Z,56.50
2019-03-09T01:55:07.587Z,49.75
2019-03-09T01:57:36.684Z,42.25
2019-03-09T02:00:06.766Z,49.38
2019-03-09T02:02:35.810Z,47.05
2019-03-09T02:05:05.210Z,45.05
2019-03-09T02:07:34.368Z,44.60
2019-03-09T02:10:03.424Z,46.37
2019-03-09T02:12:32.461Z,44.75
2019-03-09T02:15:01.621Z,47.98
2019-03-09T02:17:30.584Z,46.98
2019-03-09T02:19:59.696Z,52.98
2019-03-09T02:22:28.792Z,43.40
2019-03-09T02:24:57.688Z,46.23
2019-03-09T02:27:26.792Z,48.33
2019-03-09T02:29:55.868Z,45.88
2019-03-09T02:32:24.870Z,36.55
2019-03-09T02:34:53.922Z,42.10
2019-03-09T02:37:23.060Z,43.55
2019-03-09T02:39:56.454Z,37.78
2019-03-09T02:42:25.678Z,38.23
2019-03-09T02:44:54.732Z,31.80
2019-03-09T02:47:23.957Z,30.52
2019-03-09T02:49:52.977Z,34.05
2019-03-09T02:52:21.966Z,40.17
2019-03-09T02:54:50.985Z,36.88
2019-03-09T02:57:20.100Z,35.05
2019-03-09T02:59:49.201Z,33.33
2019-03-09T03:02:25.590Z,33.28
2019-03-09T03:04:54.662Z,34.63
2019-03-09T03:07:23.668Z,36.90
2019-03-09T03:09:52.778Z,29.05
2019-03-09T03:12:21.844Z,28.42
2019-03-09T03:14:50.944Z,30.50
2019-03-09T03:17:20.083Z,29.87
2019-03-09T03:19:49.376Z,27.32
2019-03-09T03:22:18.430Z,27.45
2019-03-09T03:24:48.581Z,22.67
2019-03-09T03:27:17.670Z,27.67
2019-03-09T03:29:46.736Z,29.32
2019-03-09T03:32:16.458Z,29.85
2019-03-09T03:34:45.458Z,32.28
2019-03-09T03:37:14.564Z,31.48
2019-03-09T03:39:43.679Z,28.52
2019-03-09T03:42:12.732Z,28.67
2019-03-09T03:44:44.891Z,29.67
2019-03-09T03:47:15.343Z,24.43
2019-03-09T03:49:44.513Z,24.92
2019-03-09T03:52:13.665Z,28.67
2019-03-09T03:54:42.757Z,30.85
2019-03-09T03:57:11.828Z,32.33
2019-03-09T03:59:41.002Z,27.13
2019-03-09T04:02:09.957Z,28.95
2019-03-09T04:04:39.032Z,29.10
2019-03-09T04:07:08.621Z,30.90
2019-03-09T04:09:37.808Z,24.18
2019-03-09T04:12:06.823Z,32.33
2019-03-09T04:14:36.021Z,25.85
2019-03-09T04:17:05.136Z,26.75
2019-03-09T04:19:34.793Z,27.98
2019-03-09T04:22:03.896Z,22.52
2019-03-09T04:24:33.042Z,25.65
2019-03-09T04:27:02.101Z,26.55
2019-03-09T04:29:31.128Z,43.17
2019-03-09T04:32:00.189Z,32.45
2019-03-09T04:34:29.200Z,38.42
2019-03-09T04:37:01.928Z,27.48
2019-03-09T04:39:31.164Z,30.65
2019-03-09T04:42:00.318Z,28.62
2019-03-09T04:44:29.383Z,29.55
2019-03-09T04:46:58.800Z,27.93
2019-03-09T04:49:27.908Z,32.50
2019-03-09T04:51:57.050Z,26.87
2019-03-09T04:54:26.168Z,27.80
2019-03-09T04:56:55.261Z,28.12
2019-03-09T04:59:24.366Z,26.02
2019-03-09T05:01:53.444Z,25.23
2019-03-09T05:04:38.918Z,29.85
2019-03-09T05:07:08.017Z,38.05
2019-03-09T05:10:29.120Z,35.25
2019-03-09T05:13:01.438Z,32.67
2019-03-09T05:15:31.244Z,31.45
2019-03-09T05:18:00.425Z,31.00
2019-03-09T05:20:29.416Z,34.08
2019-03-09T05:22:58.177Z,41.85
2019-03-09T05:25:27.191Z,40.33
2019-03-09T05:27:56.096Z,39.18
2019-03-09T05:30:37.900Z,33.78
2019-03-09T05:33:06.798Z,35.30
2019-03-09T05:35:35.994Z,29.00
2019-03-09T05:38:05.111Z,35.98
2019-03-09T05:40:34.352Z,35.08
2019-03-09T05:43:03.676Z,36.42
2019-03-09T05:45:32.904Z,32.20
2019-03-09T05:48:01.983Z,34.00
2019-03-09T05:50:31.127Z,39.03
2019-03-09T05:53:19.329Z,40.17
2019-03-09T05:55:48.793Z,30.75
2019-03-09T05:58:17.812Z,29.75
2019-03-09T06:00:46.827Z,32.83
2019-03-09T06:03:15.927Z,33.38
2019-03-09T06:05:51.318Z,39.30
2019-03-09T06:08:20.344Z,34.03
2019-03-09T06:10:49.381Z,38.45
2019-03-09T06:13:18.453Z,37.50
2019-03-09T06:15:47.521Z,35.95
2019-03-09T06:18:16.540Z,36.10
2019-03-09T06:20:45.661Z,30.17
2019-03-09T06:23:14.785Z,35.48
2019-03-09T06:25:44.373Z,41.53
2019-03-09T06:28:13.467Z,38.20
2019-03-09T06:30:42.582Z,33.20
2019-03-09T06:33:21.294Z,30.55
2019-03-09T06:35:53.288Z,36.95
2019-03-09T06:38:45.438Z,41.00
2019-03-09T06:41:16.624Z,35.98
2019-03-09T06:43:45.675Z,36.28
2019-03-09T06:46:14.708Z,42.20
2019-03-09T06:48:43.765Z,33.38
2019-03-09T06:51:12.876Z,31.87
2019-03-09T06:53:41.996Z,30.57
2019-03-09T06:56:11.054Z,32.85
2019-03-09T06:58:40.052Z,26.23
2019-03-09T07:01:19.365Z,31.85
2019-03-09T07:03:48.400Z,28.52
2019-03-09T07:06:17.625Z,35.13
2019-03-09T07:08:47.559Z,29.37
2019-03-09T07:11:16.730Z,37.58
2019-03-09T07:13:52.707Z,36.35
2019-03-09T07:16:14.921Z,35.55
2019-03-09T07:18:44.515Z,32.80
2019-03-09T07:21:13.629Z,32.20
2019-03-09T07:23:42.714Z,35.52
2019-03-09T07:26:11.924Z,34.40
2019-03-09T07:28:40.969Z,36.30
2019-03-09T07:31:10.829Z,31.77
2019-03-09T07:33:39.888Z,23.50
2019-03-09T07:36:08.797Z,31.87
2019-03-09T07:38:37.941Z,28.40
2019-03-09T07:41:06.928Z,27.30
2019-03-09T07:43:36.033Z,32.73
2019-03-09T07:46:05.133Z,18.43
2019-03-09T07:48:34.718Z,21.90
2019-03-09T07:51:03.769Z,26.57
2019-03-09T07:53:32.910Z,18.73
2019-03-09T07:56:01.852Z,23.93
2019-03-09T07:58:30.861Z,19.47
2019-03-09T08:00:59.984Z,19.33
2019-03-09T08:03:29.048Z,14.93
2019-03-09T08:05:58.041Z,21.57
2019-03-09T08:08:28.543Z,31.07
2019-03-09T08:10:58.659Z,23.23
2019-03-09T08:13:27.686Z,30.53
2019-03-09T08:15:56.726Z,20.43
2019-03-09T08:18:25.882Z,35.43
2019-03-09T08:20:55.089Z,48.73
2019-03-09T08:23:24.182Z,31.90
2019-03-09T08:25:53.269Z,18.80
2019-03-09T08:28:22.340Z,16.30
2019-03-09T08:30:51.482Z,14.63
2019-03-09T08:33:20.562Z,20.70
2019-03-09T08:35:49.697Z,27.73
2019-03-09T08:38:18.789Z,22.10
2019-03-09T08:40:47.854Z,12.97
2019-03-09T08:43:16.877Z,15.23
2019-03-09T08:45:45.854Z,15.07
2019-03-09T08:48:14.940Z,12.43
2019-03-09T08:50:44.706Z,9.90
2019-03-09T08:53:13.785Z,13.03
2019-03-09T08:55:42.861Z,10.80
2019-03-09T08:58:11.957Z,26.07
2019-03-09T09:00:41.082Z,35.07
2019-03-09T09:03:10.125Z,15.53
2019-03-09T09:05:39.796Z,10.87
2019-03-09T09:08:08.471Z,10.33
2019-03-09T09:10:37.896Z,19.50
2019-03-09T09:13:06.914Z,10.93
2019-03-09T09:15:36.096Z,12.53
2019-03-09T09:18:06.038Z,9.53
2019-03-09T09:20:35.419Z,16.40
2019-03-09T09:23:04.433Z,12.43
2019-03-09T09:25:33.335Z,10.87
2019-03-09T09:28:02.425Z,7.23
2019-03-09T09:30:31.559Z,9.73
2019-03-09T09:33:00.759Z,11.03
2019-03-09T09:35:29.837Z,21.13
2019-03-09T09:37:58.928Z,10.53
2019-03-09T09:40:28.128Z,7.73
2019-03-09T09:42:57.419Z,8.37
2019-03-09T09:45:26.563Z,15.13
2019-03-09T09:47:55.542Z,9.03
2019-03-09T09:50:24.645Z,5.40
2019-03-09T09:52:54.184Z,9.47
2019-03-09T09:55:23.217Z,9.13
2019-03-09T09:57:52.106Z,7.70
2019-03-09T10:00:22.945Z,11.67
2019-03-09T10:02:51.923Z,11.33
2019-03-09T10:05:21.703Z,8.43
2019-03-09T10:07:50.776Z,12.10
2019-03-09T10:10:20.691Z,10.70
2019-03-09T10:12:49.662Z,6.70
2019-03-09T10:15:20.709Z,14.27
2019-03-09T10:17:49.842Z,14.13
2019-03-09T10:20:19.537Z,18.43
2019-03-09T10:22:48.614Z,15.03
2019-03-09T10:25:17.713Z,13.73
2019-03-09T10:27:46.778Z,11.50
2019-03-09T10:30:18.738Z,7.43
2019-03-09T10:32:47.862Z,18.70
2019-03-09T10:35:16.850Z,9.53
2019-03-09T10:37:45.862Z,10.40
2019-03-09T10:40:15.384Z,10.60
2019-03-09T10:42:44.445Z,20.17
2019-03-09T10:45:13.571Z,13.10
2019-03-09T10:47:42.606Z,11.53
2019-03-09T10:50:12.888Z,10.87
2019-03-09T10:52:42.383Z,6.27
2019-03-09T10:55:13.486Z,17.73
2019-03-09T10:57:42.569Z,11.20
2019-03-09T11:00:15.912Z,7.90
2019-03-09T11:02:44.976Z,7.70
2019-03-09T11:05:14.134Z,9.23
2019-03-09T11:07:43.237Z,9.53
2019-03-09T11:10:12.389Z,9.40
2019-03-09T11:12:41.713Z,9.60
2019-03-09T11:15:10.853Z,13.03
2019-03-09T11:17:39.794Z,12.53
2019-03-09T11:20:10.488Z,9.70
2019-03-09T11:22:39.613Z,14.43
2019-03-09T11:25:08.926Z,251.40
2019-03-09T11:27:37.990Z,11.23
2019-03-09T11:30:10.810Z,10.73
2019-03-09T11:32:39.815Z,10.57
2019-03-09T11:35:08.917Z,11.77
2019-03-09T11:37:38.022Z,10.50
2019-03-09T11:40:07.090Z,10.77
2019-03-09T11:42:36.184Z,12.90
2019-03-09T11:45:05.805Z,11.50
2019-03-09T11:47:34.970Z,10.93
2019-03-09T11:50:04.332Z,14.17
2019-03-09T11:52:34.107Z,11.57
2019-03-09T11:55:03.188Z,8.93
2019-03-09T11:57:32.193Z,11.53
2019-03-09T12:00:01.994Z,19.23
2019-03-09T12:02:38.973Z,17.97
2019-03-09T12:05:00.576Z,9.83
2019-03-09T12:07:29.800Z,16.37
2019-03-09T12:09:58.913Z,10.93
2019-03-09T12:12:27.795Z,11.40
2019-03-09T12:14:56.861Z,13.83
2019-03-09T12:17:26.379Z,14.80
2019-03-09T12:19:55.316Z,15.00
2019-03-09T12:22:24.344Z,11.97
2019-03-09T12:24:54.555Z,10.17
2019-03-09T12:27:23.624Z,13.10
2019-03-09T12:29:53.393Z,14.40
2019-03-09T12:32:22.490Z,13.40
2019-03-09T12:34:51.585Z,205.90
2019-03-09T12:37:20.710Z,18.77
2019-03-09T12:39:49.834Z,12.63
2019-03-09T12:42:19.005Z,8.67
2019-03-09T12:44:47.975Z,10.07
2019-03-09T12:47:19.012Z,7.23
2019-03-09T12:49:46.149Z,12.83
2019-03-09T12:52:15.304Z,7.97
2019-03-09T12:54:44.415Z,11.10
2019-03-09T12:57:13.542Z,14.70
2019-03-09T12:59:42.733Z,14.67
2019-03-09T13:02:11.791Z,15.60
2019-03-09T13:04:40.681Z,13.23
2019-03-09T13:07:09.770Z,17.33
2019-03-09T13:09:38.826Z,20.50
2019-03-09T13:12:08.860Z,13.37
2019-03-09T13:14:37.042Z,14.80
2019-03-09T13:17:06.089Z,12.43
2019-03-09T13:19:35.108Z,13.40
2019-03-09T13:22:04.711Z,10.93
2019-03-09T13:24:34.561Z,9.00
2019-03-09T13:27:04.364Z,8.83
2019-03-09T13:29:33.440Z,8.03
2019-03-09T13:32:03.459Z,13.13
2019-03-09T13:34:32.487Z,13.90
2019-03-09T13:37:01.541Z,11.53
2019-03-09T13:39:30.635Z,13.53
2019-03-09T13:41:59.687Z,7.97
2019-03-09T13:44:28.633Z,8.57
2019-03-09T13:46:57.708Z,10.47
2019-03-09T13:49:26.873Z,9.20
2019-03-09T13:51:55.831Z,12.30
2019-03-09T13:54:24.862Z,11.13
2019-03-09T13:56:54.551Z,15.73
2019-03-09T13:59:23.510Z,9.87
2019-03-09T14:01:52.605Z,11.63
2019-03-09T14:04:21.497Z,7.60
2019-03-09T14:06:50.495Z,9.53
2019-03-09T14:09:19.721Z,6.93
2019-03-09T14:11:48.590Z,9.67
2019-03-09T14:14:17.598Z,6.20
2019-03-09T14:16:47.334Z,6.87
2019-03-09T14:19:16.479Z,12.17
2019-03-09T14:21:45.612Z,9.03
2019-03-09T14:24:14.720Z,7.83
2019-03-09T14:26:43.781Z,10.23
2019-03-09T14:29:12.781Z,9.90
2019-03-09T14:31:41.903Z,8.70
2019-03-09T14:34:10.973Z,10.47
2019-03-09T14:36:40.059Z,8.70
2019-03-09T14:39:09.138Z,14.60
2019-03-09T14:41:38.749Z,9.97
2019-03-09T14:44:07.760Z,6.80
2019-03-09T14:46:36.855Z,10.57
2019-03-09T14:49:05.897Z,11.90
2019-03-09T14:51:34.844Z,11.17
2019-03-09T14:54:04.005Z,10.70
2019-03-09T14:56:33.154Z,9.70
2019-03-09T14:59:02.242Z,10.03
2019-03-09T15:01:31.268Z,9.03
2019-03-09T15:04:00.448Z,10.30
2019-03-09T15:06:29.568Z,8.53
2019-03-09T15:08:58.697Z,10.73
2019-03-09T15:11:27.620Z,8.70
2019-03-09T15:13:56.713Z,11.47
2019-03-09T15:16:26.118Z,9.23
2019-03-09T15:18:55.212Z,9.50
2019-03-09T15:21:24.325Z,8.83
2019-03-09T15:23:53.465Z,12.00
2019-03-09T15:26:22.629Z,10.83
2019-03-09T15:28:53.057Z,7.80
2019-03-09T15:31:22.177Z,8.57
2019-03-09T15:33:51.209Z,10.93
2019-03-09T15:36:20.302Z,10.30
2019-03-09T15:38:49.254Z,12.40
2019-03-09T15:41:18.945Z,12.50
2019-03-09T15:43:48.019Z,19.60
2019-03-09T15:46:17.150Z,12.70
2019-03-09T15:48:46.246Z,11.63
2019-03-09T15:51:15.409Z,13.03
2019-03-09T15:53:44.729Z,20.17
2019-03-09T15:56:13.856Z,15.73
2019-03-09T15:58:42.837Z,22.93
2019-03-09T16:01:11.707Z,11.93
2019-03-09T16:03:40.780Z,15.47
2019-03-09T16:06:09.780Z,11.33
2019-03-09T16:08:38.933Z,14.33
2019-03-09T16:11:07.882Z,15.57
2019-03-09T16:13:36.956Z,31.57
2019-03-09T16:16:06.224Z,16.27
2019-03-09T16:18:35.263Z,11.57
2019-03-09T16:21:04.358Z,13.23
2019-03-09T16:23:33.532Z,14.80
2019-03-09T16:26:02.560Z,13.60
2019-03-09T16:28:31.656Z,28.00
2019-03-09T16:31:00.776Z,22.03
2019-03-09T16:33:30.113Z,14.93
2019-03-09T16:35:59.146Z,21.97
2019-03-09T16:38:28.166Z,13.93
2019-03-09T16:40:57.244Z,19.27
2019-03-09T16:43:26.340Z,14.67
2019-03-09T16:45:56.388Z,9.87
2019-03-09T16:48:25.831Z,13.43
2019-03-09T16:50:55.035Z,19.83
2019-03-09T16:53:24.255Z,9.90
2019-03-09T16:55:53.349Z,12.53
2019-03-09T16:58:22.432Z,12.80
2019-03-09T17:00:51.836Z,14.23
2019-03-09T17:03:20.828Z,13.43
2019-03-09T17:05:49.992Z,14.97
2019-03-09T17:08:19.018Z,17.17
2019-03-09T17:10:48.024Z,17.70
2019-03-09T17:13:17.046Z,15.90
2019-03-09T17:15:46.108Z,13.70
2019-03-09T17:18:15.110Z,14.97
2019-03-09T17:20:44.270Z,22.70
2019-03-09T17:23:13.213Z,18.20
2019-03-09T17:25:42.307Z,14.23
2019-03-09T17:28:11.387Z,13.67
2019-03-09T17:30:41.118Z,18.33
2019-03-09T17:33:10.224Z,17.97
2019-03-09T17:35:39.285Z,24.43
2019-03-09T17:38:08.423Z,11.47
2019-03-09T17:40:37.972Z,28.10
2019-03-09T17:43:07.008Z,26.13
2019-03-09T17:45:36.081Z,18.27
2019-03-09T17:48:05.125Z,16.93
2019-03-09T17:50:34.227Z,18.20
2019-03-09T17:53:03.278Z,26.43
2019-03-09T17:55:32.376Z,465.17
2019-03-09T17:58:01.519Z,1999.90
2019-03-09T18:00:30.690Z,1999.90
2019-03-09T18:03:00.531Z,1999.90
2019-03-09T18:05:29.642Z,1761.43
2019-03-09T18:07:58.684Z,1455.43
2019-03-09T18:10:31.406Z,1708.43
2019-03-09T18:13:00.460Z,1534.63
2019-03-09T18:15:30.209Z,1999.90
2019-03-09T18:17:59.333Z,103.07
2019-03-09T18:20:28.254Z,17.73
2019-03-09T18:22:57.255Z,16.30
2019-03-09T18:25:26.399Z,13.10
2019-03-09T18:27:55.353Z,16.00
2019-03-09T18:30:24.541Z,15.30
2019-03-09T18:32:53.461Z,15.83
2019-03-09T18:35:22.532Z,14.67
2019-03-09T18:37:51.421Z,16.03
2019-03-09T18:40:21.145Z,16.47
2019-03-09T18:42:50.231Z,14.80
2019-03-09T18:45:19.336Z,20.97
2019-03-09T18:47:48.371Z,14.27
2019-03-09T18:50:17.292Z,122.60
2019-03-09T18:52:46.193Z,12.97
2019-03-09T18:55:15.398Z,17.27
2019-03-09T18:57:44.509Z,16.27
2019-03-09T19:00:15.032Z,13.30
2019-03-09T19:02:44.114Z,19.60
2019-03-09T19:05:13.214Z,13.90
2019-03-09T19:07:42.201Z,14.07
2019-03-09T19:10:12.286Z,16.53
2019-03-09T19:12:41.359Z,16.87
2019-03-09T19:15:11.298Z,13.63
2019-03-09T19:17:40.394Z,18.90
2019-03-09T19:20:10.668Z,62.93
2019-03-09T19:22:46.405Z,62.63
2019-03-09T19:25:15.722Z,43.40
2019-03-09T19:27:45.407Z,57.17
2019-03-09T19:30:15.712Z,69.20
2019-03-09T19:32:44.787Z,45.00
2019-03-09T19:35:13.884Z,83.83
2019-03-09T19:37:42.804Z,14.17
2019-03-09T19:40:13.201Z,16.47
2019-03-09T19:42:42.825Z,17.37
2019-03-09T19:45:12.752Z,14.33
2019-03-09T19:47:41.785Z,12.47
2019-03-09T19:50:13.059Z,11.80
2019-03-09T19:52:42.228Z,13.37
2019-03-09T19:55:11.357Z,12.07
2019-03-09T19:57:40.269Z,14.60
2019-03-09T20:00:10.200Z,17.17
2019-03-09T20:02:39.168Z,12.30
2019-03-09T20:05:08.797Z,13.80
2019-03-09T20:07:41.087Z,13.47
2019-03-09T20:10:11.390Z,15.60
2019-03-09T20:12:40.502Z,10.70
2019-03-09T20:15:10.781Z,14.67
2019-03-09T20:17:39.810Z,11.73
2019-03-09T20:20:09.614Z,16.50
2019-03-09T20:22:38.666Z,14.57
2019-03-09T20:25:08.085Z,15.53
2019-03-09T20:27:37.211Z,15.13
2019-03-09T20:30:06.916Z,19.50
2019-03-09T20:32:36.579Z,22.47
2019-03-09T20:35:05.829Z,19.03
2019-03-09T20:37:35.431Z,17.53
2019-03-09T20:40:04.991Z,25.43
2019-03-09T20:42:34.176Z,18.40
2019-03-09T20:45:03.465Z,23.20
2019-03-09T20:47:32.482Z,22.20
2019-03-09T20:50:01.544Z,116.07
2019-03-09T20:52:30.572Z,61.40
2019-03-09T20:54:59.714Z,21.73
2019-03-09T20:57:28.832Z,26.07
2019-03-09T20:59:58.214Z,22.43
2019-03-09T21:02:27.297Z,20.50
2019-03-09T21:04:56.427Z,19.20
2019-03-09T21:07:25.578Z,17.60
2019-03-09T21:09:54.659Z,18.07
2019-03-09T21:12:23.814Z,18.60
2019-03-09T21:14:52.846Z,23.40
2019-03-09T21:17:21.952Z,18.87
2019-03-09T21:19:51.080Z,19.00
2019-03-09T21:22:20.245Z,30.43
2019-03-09T21:24:49.359Z,22.53
2019-03-09T21:27:18.741Z,33.20
2019-03-09T21:29:47.719Z,51.30
2019-03-09T21:32:17.006Z,41.27
2019-03-09T21:34:46.063Z,28.70
2019-03-09T21:37:15.144Z,26.30
2019-03-09T21:39:44.809Z,23.40
2019-03-09T21:42:13.962Z,40.77
2019-03-09T21:44:43.118Z,25.73
2019-03-09T21:47:12.228Z,26.67
2019-03-09T21:49:41.345Z,20.70
2019-03-09T21:52:10.422Z,24.50
2019-03-09T21:54:39.530Z,24.60
2019-03-09T21:57:09.246Z,24.13
2019-03-09T21:59:38.314Z,24.27
2019-03-09T22:02:07.638Z,24.57
2019-03-09T22:04:36.853Z,25.37
2019-03-09T22:07:05.927Z,26.37
2019-03-09T22:09:35.211Z,25.97
2019-03-09T22:12:04.394Z,23.73
2019-03-09T22:14:33.406Z,28.87
2019-03-09T22:17:02.423Z,25.07
2019-03-09T22:19:31.652Z,24.67
2019-03-09T22:22:00.712Z,24.63
2019-03-09T22:24:29.803Z,27.53
2019-03-09T22:26:58.758Z,22.30
2019-03-09T22:29:27.891Z,22.77
2019-03-09T22:31:57.022Z,23.20
2019-03-09T22:34:26.157Z,29.40
2019-03-09T22:36:55.149Z,27.43
2019-03-09T22:39:24.328Z,25.70
2019-03-09T22:41:53.405Z,28.30
2019-03-09T22:44:22.587Z,34.33
2019-03-09T22:46:51.674Z,31.77
2019-03-09T22:49:21.073Z,57.80
2019-03-09T22:51:51.157Z,76.60
2019-03-09T22:54:20.187Z,35.83
2019-03-09T22:56:49.320Z,27.70
2019-03-09T22:59:18.373Z,28.47
2019-03-09T23:01:47.326Z,33.83
2019-03-09T23:04:16.541Z,29.97
2019-03-09T23:06:46.027Z,31.00
2019-03-09T23:09:15.061Z,33.93
2019-03-09T23:11:44.122Z,36.13
2019-03-09T23:14:13.200Z,125.53
2019-03-09T23:16:42.056Z,47.25
2019-03-09T23:19:11.080Z,45.00
2019-03-09T23:21:40.051Z,52.23
2019-03-09T23:24:10.103Z,66.50
2019-03-09T23:27:42.256Z,65.23
2019-03-09T23:30:14.820Z,56.73
2019-03-09T23:32:44.039Z,65.08
2019-03-09T23:35:13.120Z,57.10
2019-03-09T23:37:42.101Z,55.40
2019-03-09T23:40:11.329Z,56.98
2019-03-09T23:42:40.411Z,51.13
2019-03-09T23:45:10.641Z,48.33
2019-03-09T23:47:40.460Z,47.75
2019-03-09T23:50:10.532Z,50.00
2019-03-09T23:52:39.654Z,45.25
2019-03-09T23:55:08.864Z,55.10
2019-03-09T23:57:37.966Z,52.93
